Ohio State University Airport Columbus US
ICAO: KOSU
IATA: OSU
Category: Medium
Scheduled Services: No

Elevation: 905 ft
TransAlt. 18000 ft.

Airport Communications:
COLUMBUS APP/DEP:120.2
ATIS:121.35
CTAF:118.8
GND/CLNC DEL:121.7
TWR:118.8
UNICOM:122.95

KOSU Zoom In..

Runways:

(A) RW 05 length 3562 ft width 100 ft
---- / hdg 54

(B) RW 09L length 2994 ft width 100 ft
---- / hdg 92

(C) RW 09R length 5004 ft width 100 ft
ILS 108.50 / hdg 92

(D) RW 14 length 3049 ft width 100 ft
---- / hdg 141

(E) RW 23 length 3562 ft width 100 ft
---- / hdg 234

(F) RW 27L length 5004 ft width 100 ft
---- / hdg 272

(G) RW 27R length 2994 ft width 100 ft
---- / hdg 272

(H) RW 32 length 3049 ft width 100 ft
---- / hdg 321

Location; KOSU
Day. 11 / Time. 19.53 Zulu
* Altimeter: 29.85
* Temperature: 31° c. 87.8°f.
* Wind from: 300° Speed 11 kn with Gusts up to 20 kn.
Dewpoint: 17° c.
Visibility: 10 Statute Miles.
Clouds: Scattered 5500 ft.

KOSU 111953Z 30011G20KT 10SM SCT055 31/17 A2985 RMK AO2 SLP100 T03060172

Going to: --> -->


Wind From 300°
Speed 11 kn.

 
 
jpsmedia worldairports.se 2020   terms of use